Time;durP1;ratioP1;P1;durP2;ratioP2;P2;SDS_P1;SDS_P2;PMS_P1;PMS_P2;Temp;Humidity;BMP_temperature;BMP_pressure;BME280_temperature;BME280_humidity;BME280_pressure;Samples;Min_cycle;Max_cycle;Signal;HPM_P1;HPM_P2
2022/02/01 00:08:05;;;;;;;;;;;22.70;36.40;;;;;;6016643;28;87325;-67
2022/02/01 00:36:47;;;;;;;39.05;18.77;;;22.70;37.10;;;;;;6062295;28;82976;-66
2022/02/01 00:39:55;;;;;;;40.35;18.83;;;22.70;37.20;;;;;;6046199;28;85497;-67
2022/02/01 00:42:56;;;;;;;40.38;19.05;;;22.70;37.20;;;;;;6059943;28;83501;-67
2022/02/01 00:46:00;;;;;;;37.42;18.77;;;22.70;37.10;;;;;;6046142;28;83537;-67
2022/02/01 00:49:00;;;;;;;44.72;19.15;;;22.70;38.00;;;;;;6062183;28;84945;-67
2022/02/01 00:52:01;;;;;;;40.53;20.10;;;22.70;37.50;;;;;;6063859;28;83297;-67
2022/02/01 00:55:01;;;;;;;35.55;17.38;;;22.70;37.20;;;;;;6063430;28;83656;-67
2022/02/01 00:58:02;;;;;;;42.90;20.10;;;22.70;37.30;;;;;;6061683;28;84269;-67
2022/02/01 01:01:02;;;;;;;40.83;18.88;;;22.70;37.30;;;;;;6052582;28;84343;-67
2022/02/01 01:04:03;;;;;;;44.13;20.20;;;22.70;37.40;;;;;;6059847;28;83287;-67
2022/02/01 01:07:03;;;;;;;40.35;19.05;;;22.70;37.40;;;;;;6043572;28;86143;-67
2022/02/01 01:10:04;;;;;;;40.90;19.27;;;22.70;37.40;;;;;;6051405;28;83156;-67
2022/02/01 01:13:37;;;;;;;46.92;20.85;;;22.70;37.30;;;;;;6062047;28;87402;-67
2022/02/01 01:43:37;;;;;;;48.80;22.27;;;22.60;37.20;;;;;;6033580;28;84135;-67
2022/02/01 01:56:16;;;;;;;40.60;20.23;;;22.60;37.20;;;;;;6045052;28;82905;-67
2022/02/01 01:59:17;;;;;;;41.70;20.35;;;22.60;37.20;;;;;;6053832;28;83149;-68
2022/02/01 02:02:17;;;;;;;44.75;21.38;;;22.60;37.10;;;;;;6061267;28;83561;-67
2022/02/01 02:05:18;;;;;;;40.35;18.80;;;22.60;37.20;;;;;;6051549;28;83520;-68
2022/02/01 02:08:18;;;;;;;44.35;19.75;;;22.60;37.20;;;;;;6050725;28;84417;-67
2022/02/01 02:14:31;;;;;;;38.63;19.55;;;22.60;37.10;;;;;;6059120;28;83443;-69
2022/02/01 02:17:32;;;;;;;43.05;19.38;;;22.60;37.20;;;;;;6059971;28;83210;-67
2022/02/01 02:20:32;;;;;;;42.65;19.05;;;22.60;37.10;;;;;;6060746;28;83244;-68
2022/02/01 02:23:33;;;;;;;39.33;17.70;;;22.60;37.20;;;;;;6056642;28;83918;-67
2022/02/01 02:26:34;;;;;;;37.95;19.48;;;22.60;37.20;;;;;;6062303;28;83204;-67
2022/02/01 02:29:34;;;;;;;35.97;18.45;;;22.60;37.40;;;;;;6060343;28;83331;-67
2022/02/01 02:32:35;;;;;;;42.83;18.80;;;22.60;37.20;;;;;;6058064;28;84454;-65
2022/02/01 02:35:41;;;;;;;35.35;17.38;;;22.60;37.40;;;;;;6054228;28;83287;-67
2022/02/01 02:41:51;;;;;;;36.30;17.40;;;22.60;37.50;;;;;;6049946;28;83256;-67
2022/02/01 02:45:12;;;;;;;41.63;18.50;;;22.60;37.40;;;;;;6036141;28;84683;-67
2022/02/01 02:48:12;;;;;;;36.33;17.17;;;22.60;37.30;;;;;;6049152;28;84489;-68
2022/02/01 02:51:13;;;;;;;36.97;16.95;;;22.60;37.40;;;;;;6035894;28;84540;-66
2022/02/01 02:54:13;;;;;;;36.17;16.50;;;22.60;38.10;;;;;;6054031;28;82987;-67
2022/02/01 02:57:14;;;;;;;34.67;17.38;;;22.60;37.50;;;;;;6055051;28;82965;-67
2022/02/01 03:00:14;;;;;;;39.22;17.80;;;22.60;37.60;;;;;;6049609;28;89362;-67
2022/02/01 03:03:15;;;;;;;32.15;16.33;;;22.60;37.60;;;;;;6048936;28;83163;-66
2022/02/01 03:06:15;;;;;;;35.78;17.58;;;22.60;37.60;;;;;;6057117;28;83085;-67
2022/02/01 03:09:16;;;;;;;39.55;17.95;;;22.60;37.60;;;;;;6031502;28;83520;-67
2022/02/01 03:12:32;;;;;;;32.72;17.13;;;22.60;37.60;;;;;;6058621;28;82944;-66
2022/02/01 03:21:52;;;;;;;38.40;18.83;;;22.50;37.60;;;;;;6066240;28;84468;-67
2022/02/01 03:24:53;;;;;;;43.10;19.23;;;22.50;37.60;;;;;;6052699;28;86197;-67
2022/02/01 03:27:53;;;;;;;38.40;18.48;;;22.50;37.60;;;;;;6047728;28;84651;-67
2022/02/01 03:30:54;;;;;;;37.22;17.27;;;22.50;37.60;;;;;;6046443;28;82719;-67
2022/02/01 03:33:54;;;;;;;36.55;19.35;;;22.50;37.50;;;;;;6059955;28;84403;-67
2022/02/01 03:36:55;;;;;;;37.72;18.00;;;22.50;37.50;;;;;;6060991;28;83441;-67
2022/02/01 03:39:55;;;;;;;37.72;18.48;;;22.50;37.50;;;;;;6057962;28;84233;-67
2022/02/01 03:42:56;;;;;;;40.42;19.63;;;22.50;37.50;;;;;;6044268;28;83481;-67
2022/02/01 03:45:56;;;;;;;38.78;18.77;;;22.50;38.20;;;;;;6052232;28;83406;-66
2022/02/01 03:48:57;;;;;;;39.50;19.52;;;22.50;37.50;;;;;;6056431;28;84313;-66
2022/02/01 03:51:58;;;;;;;44.97;20.85;;;22.50;37.50;;;;;;6059958;28;82927;-65
2022/02/01 03:54:59;;;;;;;42.60;19.77;;;22.50;37.40;;;;;;6052515;28;84060;-66
2022/02/01 03:57:59;;;;;;;42.45;18.33;;;22.50;37.40;;;;;;6063144;28;84568;-65
2022/02/01 04:01:00;;;;;;;43.20;20.08;;;22.50;37.40;;;;;;6052463;28;83134;-66
2022/02/01 04:04:00;;;;;;;40.33;18.92;;;22.50;37.30;;;;;;6052080;28;83248;-67
2022/02/01 04:07:01;;;;;;;39.17;18.73;;;22.50;37.30;;;;;;6060495;28;83788;-66
2022/02/01 04:10:01;;;;;;;39.20;18.75;;;22.50;38.10;;;;;;6062065;28;83227;-66
2022/02/01 04:13:04;;;;;;;36.72;18.48;;;22.50;37.00;;;;;;6062499;28;83013;-65
2022/02/01 04:16:04;;;;;;;40.15;18.63;;;22.60;37.10;;;;;;6051409;28;82881;-65
2022/02/01 04:19:05;;;;;;;44.80;20.23;;;22.60;36.90;;;;;;6033679;28;84484;-66
2022/02/01 04:22:06;;;;;;;41.42;20.20;;;22.60;36.70;;;;;;6052153;28;83188;-66
2022/02/01 04:25:06;;;;;;;37.58;18.52;;;22.60;36.60;;;;;;6060277;28;83026;-66
2022/02/01 04:28:07;;;;;;;41.80;20.35;;;22.70;36.50;;;;;;6070221;28;85266;-66
2022/02/01 04:31:07;;;;;;;43.38;20.30;;;22.70;36.40;;;;;;6048451;28;83228;-66
2022/02/01 04:34:08;;;;;;;44.85;21.92;;;22.80;36.30;;;;;;6063516;28;84997;-65
2022/02/01 04:37:08;;;;;;;40.47;19.95;;;22.80;36.10;;;;;;6054103;28;83510;-66
2022/02/01 04:40:09;;;;;;;47.65;20.92;;;22.90;36.00;;;;;;6057560;28;83355;-66
2022/02/01 04:43:11;;;;;;;45.47;21.33;;;22.90;36.00;;;;;;6065821;28;82834;-67
2022/02/01 04:46:13;;;;;;;43.45;20.40;;;22.90;35.80;;;;;;6064484;28;83353;-66
2022/02/01 04:49:14;;;;;;;43.97;21.67;;;23.00;35.80;;;;;;6046157;28;84969;-67
2022/02/01 04:52:14;;;;;;;51.03;23.33;;;23.00;35.70;;;;;;6064166;28;90362;-67
2022/02/01 04:55:15;;;;;;;49.28;22.13;;;23.00;35.50;;;;;;6047248;28;83398;-67
2022/02/01 04:58:15;;;;;;;48.55;22.90;;;23.00;35.40;;;;;;6064230;28;83195;-67
2022/02/01 05:01:17;;;;;;;45.03;21.33;;;23.10;35.50;;;;;;6043895;28;84502;-67
2022/02/01 05:04:20;;;;;;;47.78;23.38;;;23.10;36.20;;;;;;6062324;28;84514;-68
2022/02/01 05:07:22;;;;;;;44.15;19.98;;;23.10;35.50;;;;;;6061955;28;83276;-67
2022/02/01 05:10:22;;;;;;;44.80;22.35;;;23.10;35.70;;;;;;6063264;28;83290;-70
2022/02/01 05:16:43;;;;;;;48.92;21.50;;;23.20;35.70;;;;;;6052324;28;83002;-71
2022/02/01 05:19:54;;;;;;;47.95;22.60;;;23.20;35.60;;;;;;6048645;28;86825;-73
2022/02/01 05:22:54;;;;;;;49.70;23.75;;;23.20;36.30;;;;;;6061179;28;83225;-71
2022/02/01 05:25:57;;;;;;;43.22;21.50;;;23.20;36.30;;;;;;6061999;28;83100;-71
2022/02/01 05:28:57;;;;;;;51.53;23.10;;;23.30;37.50;;;;;;6043843;28;85724;-68
2022/02/01 05:32:01;;;;;;;40.50;20.83;;;23.30;38.10;;;;;;6061715;28;82932;-73
2022/02/01 05:35:02;;;;;;;48.85;22.05;;;23.30;37.60;;;;;;6057790;28;83389;-71
2022/02/01 05:38:02;;;;;;;54.67;22.80;;;23.30;37.40;;;;;;6062068;28;83801;-69
2022/02/01 05:41:03;;;;;;;55.80;22.67;;;23.30;38.00;;;;;;6061243;28;83616;-73
2022/02/01 05:44:04;;;;;;;45.58;21.92;;;23.40;37.60;;;;;;6052618;28;83266;-71
2022/02/01 05:47:04;;;;;;;51.60;23.33;;;23.40;37.50;;;;;;6058724;28;83218;-72
2022/02/01 05:50:05;;;;;;;44.63;20.05;;;23.40;37.20;;;;;;6062447;28;83046;-69
2022/02/01 05:53:05;;;;;;;42.47;19.10;;;23.40;37.90;;;;;;6062034;28;82778;-69
2022/02/01 05:56:06;;;;;;;34.47;16.80;;;23.40;39.50;;;;;;6061006;28;83941;-69
2022/02/01 05:59:06;;;;;;;35.42;16.42;;;23.40;41.00;;;;;;6067930;28;83275;-69
2022/02/01 06:02:07;;;;;;;32.30;15.25;;;23.30;41.60;;;;;;6068928;28;84039;-68
2022/02/01 06:05:07;;;;;;;28.23;14.13;;;23.30;42.60;;;;;;6055767;28;86142;-69
2022/02/01 06:08:09;;;;;;;30.20;14.38;;;23.30;42.60;;;;;;6049675;28;84244;-69
2022/02/01 06:11:09;;;;;;;24.70;12.43;;;23.30;42.80;;;;;;6062044;28;83014;-68
2022/02/01 06:14:10;;;;;;;26.88;12.68;;;23.30;43.40;;;;;;6057935;28;83283;-70
2022/02/01 06:17:10;;;;;;;23.98;12.98;;;23.30;43.60;;;;;;6040153;28;85846;-68
2022/02/01 06:20:11;;;;;;;27.02;12.30;;;23.30;43.90;;;;;;6058857;28;83077;-68
2022/02/01 06:23:12;;;;;;;28.40;12.40;;;23.40;44.40;;;;;;6046033;28;84995;-70
2022/02/01 06:26:13;;;;;;;24.98;12.18;;;23.30;44.30;;;;;;6053443;28;85025;-71
2022/02/01 06:29:13;;;;;;;24.60;12.13;;;23.30;44.50;;;;;;6056380;28;83554;-69
2022/02/01 06:32:14;;;;;;;24.75;11.75;;;23.30;44.70;;;;;;6052720;28;83020;-68
2022/02/01 06:35:14;;;;;;;22.27;10.27;;;23.40;44.80;;;;;;6057644;28;83309;-68
2022/02/01 06:38:15;;;;;;;21.23;11.25;;;23.30;44.90;;;;;;6061949;28;83308;-68
2022/02/01 06:41:15;;;;;;;17.35;9.35;;;23.40;44.90;;;;;;6054356;28;84331;-68
2022/02/01 06:44:16;;;;;;;23.52;11.27;;;23.30;45.20;;;;;;6057223;28;83097;-70
2022/02/01 06:47:16;;;;;;;22.42;10.68;;;23.30;45.40;;;;;;6055332;28;83315;-68
2022/02/01 06:50:20;;;;;;;19.38;11.13;;;23.40;45.70;;;;;;6065735;28;85486;-69
2022/02/01 06:53:21;;;;;;;29.75;13.50;;;23.30;45.20;;;;;;6052665;28;83898;-70
2022/02/01 06:56:28;;;;;;;29.42;13.57;;;23.40;44.90;;;;;;6056700;28;83303;-69
2022/02/01 06:59:29;;;;;;;28.98;13.48;;;23.40;44.70;;;;;;6060254;28;84037;-73
2022/02/01 07:02:29;;;;;;;31.80;15.60;;;23.30;44.90;;;;;;6059555;28;83005;-68
2022/02/01 07:05:30;;;;;;;32.67;16.20;;;23.30;44.70;;;;;;6061649;28;82907;-70
2022/02/01 07:08:30;;;;;;;31.63;14.40;;;23.30;44.60;;;;;;6059060;28;86332;-71
2022/02/01 07:11:31;;;;;;;32.53;15.75;;;23.30;44.60;;;;;;6041867;28;84239;-71
2022/02/01 07:14:31;;;;;;;33.63;15.07;;;23.30;44.60;;;;;;6050814;28;83849;-69
2022/02/01 07:17:33;;;;;;;32.55;14.68;;;23.30;44.60;;;;;;6054295;28;82988;-70
2022/02/01 07:20:33;;;;;;;31.55;14.20;;;23.30;44.60;;;;;;6061577;28;83562;-70
2022/02/01 07:23:34;;;;;;;31.83;14.52;;;23.30;44.50;;;;;;6046968;28;86033;-69
2022/02/01 07:26:34;;;;;;;28.25;14.05;;;23.20;44.60;;;;;;6049427;28;91035;-68
2022/02/01 07:29:35;;;;;;;34.38;14.45;;;23.20;44.30;;;;;;6047587;28;83031;-69
2022/02/01 07:32:35;;;;;;;30.60;13.88;;;23.20;44.50;;;;;;6052216;28;84735;-69
2022/02/01 07:35:39;;;;;;;26.63;12.90;;;23.20;44.60;;;;;;6061983;28;83343;-71
2022/02/01 07:38:40;;;;;;;24.38;11.80;;;23.20;44.90;;;;;;6052929;28;83511;-71
2022/02/01 07:41:40;;;;;;;29.58;11.77;;;23.20;45.40;;;;;;6067750;28;82965;-69
2022/02/01 07:44:42;;;;;;;29.35;12.18;;;23.20;45.30;;;;;;6077368;28;83421;-70
2022/02/01 07:47:42;;;;;;;23.52;11.15;;;23.10;45.20;;;;;;6058008;28;83304;-71
2022/02/01 07:50:43;;;;;;;18.70;9.60;;;23.10;45.40;;;;;;6058989;28;83871;-71
2022/02/01 07:53:44;;;;;;;19.30;9.63;;;23.20;45.60;;;;;;6044873;28;82912;-70
2022/02/01 07:56:44;;;;;;;18.55;9.55;;;23.20;46.00;;;;;;6050959;28;82012;-69
2022/02/01 07:59:45;;;;;;;20.10;10.32;;;23.20;45.90;;;;;;6060968;28;87813;-71
2022/02/01 08:02:45;;;;;;;24.58;9.80;;;23.20;45.60;;;;;;6061370;28;82756;-70
2022/02/01 08:05:46;;;;;;;17.23;8.52;;;23.20;45.80;;;;;;6059600;28;82946;-71
2022/02/01 08:08:46;;;;;;;15.88;8.27;;;23.20;46.10;;;;;;6058509;28;81657;-71
2022/02/01 08:11:47;;;;;;;16.88;7.57;;;23.20;46.20;;;;;;6059923;28;80308;-70
2022/02/01 08:21:01;;;;;;;14.52;6.90;;;23.10;45.80;;;;;;6067533;28;81849;-69
2022/02/01 08:24:02;;;;;;;19.60;7.30;;;23.10;45.80;;;;;;6062477;28;80749;-70
2022/02/01 08:27:02;;;;;;;16.05;7.68;;;23.10;45.80;;;;;;6064383;28;80631;-70
2022/02/01 08:30:03;;;;;;;16.00;7.72;;;23.10;45.60;;;;;;6059461;28;81162;-70
2022/02/01 08:33:03;;;;;;;12.05;6.72;;;23.10;45.40;;;;;;6064273;28;81677;-70
2022/02/01 08:36:04;;;;;;;13.50;7.55;;;23.00;45.40;;;;;;6061532;28;81388;-70
2022/02/01 08:39:04;;;;;;;11.95;6.57;;;23.00;45.40;;;;;;6064948;28;81433;-69
2022/02/01 08:42:05;;;;;;;14.98;6.97;;;23.00;45.60;;;;;;6063368;28;83248;-69
2022/02/01 08:45:05;;;;;;;14.93;7.70;;;23.00;45.70;;;;;;6060433;28;80559;-69
2022/02/01 08:48:06;;;;;;;15.27;7.32;;;22.90;45.60;;;;;;6064659;28;80352;-70
2022/02/01 08:51:09;;;;;;;21.83;11.23;;;23.00;46.10;;;;;;6057349;28;82218;-70
2022/02/01 08:54:14;;;;;;;29.83;13.93;;;22.90;42.90;;;;;;6053900;28;83314;-69
2022/02/01 08:57:21;;;;;;;33.70;13.73;;;22.50;38.70;;;;;;6057885;28;84732;-69
2022/02/01 09:00:21;;;;;;;27.65;13.02;;;22.20;37.80;;;;;;6053667;28;83172;-72
2022/02/01 09:03:22;;;;;;;35.25;13.85;;;21.90;37.40;;;;;;6051930;28;83405;-69
2022/02/01 09:06:23;;;;;;;30.42;13.80;;;21.80;37.20;;;;;;6060520;28;83553;-70
2022/02/01 09:09:24;;;;;;;28.98;12.32;;;21.60;36.90;;;;;;6051749;28;84282;-70
2022/02/01 09:12:24;;;;;;;22.13;9.57;;;21.60;38.10;;;;;;6054027;28;83898;-71
2022/02/01 09:15:26;;;;;;;21.15;9.63;;;21.80;39.40;;;;;;6060065;28;83149;-71
2022/02/01 09:18:27;;;;;;;22.40;9.52;;;21.90;39.90;;;;;;6058943;28;81440;-71
2022/02/01 09:21:27;;;;;;;19.95;9.43;;;22.00;40.60;;;;;;6055022;28;80754;-70
2022/02/01 09:24:29;;;;;;;17.05;8.05;;;22.10;41.20;;;;;;6049439;28;81498;-69
2022/02/01 09:27:30;;;;;;;16.92;8.00;;;22.20;41.60;;;;;;6062230;28;81395;-71
2022/02/01 09:30:32;;;;;;;14.75;7.90;;;22.40;42.10;;;;;;6053361;28;80667;-70
2022/02/01 09:33:32;;;;;;;14.13;7.22;;;22.40;42.20;;;;;;6035175;28;81632;-71
2022/02/01 09:36:33;;;;;;;11.88;6.50;;;22.50;42.50;;;;;;6051566;28;81305;-69
2022/02/01 09:39:33;;;;;;;14.38;6.55;;;22.60;42.90;;;;;;6056779;28;81766;-71
2022/02/01 09:42:34;;;;;;;13.77;6.50;;;22.60;42.80;;;;;;6049637;28;83027;-71
2022/02/01 09:45:36;;;;;;;12.32;6.47;;;22.70;43.00;;;;;;6048406;28;81509;-69
2022/02/01 09:48:37;;;;;;;12.80;6.40;;;22.80;42.70;;;;;;6049881;28;80542;-70
2022/02/01 09:51:37;;;;;;;12.18;6.85;;;22.80;43.00;;;;;;6051583;28;80801;-68
2022/02/01 09:54:38;;;;;;;11.88;5.85;;;22.90;43.50;;;;;;6056124;28;80950;-70
2022/02/01 09:57:40;;;;;;;13.20;5.95;;;23.00;43.30;;;;;;6052073;28;81980;-69
2022/02/01 10:00:44;;;;;;;12.25;5.70;;;23.00;43.10;;;;;;6061137;28;80906;-72
2022/02/01 10:03:46;;;;;;;13.63;6.97;;;23.00;43.10;;;;;;6056275;28;81925;-71
2022/02/01 10:06:47;;;;;;;14.80;5.72;;;23.10;43.10;;;;;;6052097;28;80557;-69
2022/02/01 10:09:48;;;;;;;10.13;5.35;;;23.10;43.00;;;;;;6055989;28;80110;-70
2022/02/01 10:12:49;;;;;;;14.57;6.22;;;23.10;42.80;;;;;;6060854;28;80895;-67
2022/02/01 10:15:49;;;;;;;12.07;6.43;;;23.10;43.40;;;;;;6060820;28;81275;-70
2022/02/01 10:18:50;;;;;;;12.32;5.90;;;23.10;43.20;;;;;;6063826;28;80958;-71
2022/02/01 10:21:50;;;;;;;13.32;6.13;;;23.20;42.90;;;;;;6043123;28;83964;-69
2022/02/01 10:24:51;;;;;;;10.23;5.80;;;23.20;43.00;;;;;;6064831;28;82358;-69
2022/02/01 10:27:51;;;;;;;11.77;5.63;;;23.20;42.80;;;;;;6056242;28;81597;-68
2022/02/01 10:30:52;;;;;;;10.85;5.65;;;23.20;42.90;;;;;;6062548;28;81047;-68
2022/02/01 10:34:00;;;;;;;15.35;5.72;;;23.20;42.80;;;;;;6063570;28;80735;-69
2022/02/01 10:37:01;;;;;;;14.60;6.45;;;23.20;42.90;;;;;;6063651;28;81489;-74
2022/02/01 10:40:05;;;;;;;10.65;5.85;;;23.20;43.00;;;;;;6047758;28;80940;-73
2022/02/01 10:43:06;;;;;;;12.38;6.13;;;23.20;43.10;;;;;;6055549;28;81946;-73
2022/02/01 10:46:10;;;;;;;114.40;54.22;;;23.30;43.50;;;;;;6053910;28;80971;-73
2022/02/01 10:49:10;;;;;;;220.77;95.22;;;23.30;43.70;;;;;;6050131;28;83139;-72
2022/02/01 10:52:11;;;;;;;244.18;115.13;;;23.30;43.70;;;;;;6054015;28;82936;-72
2022/02/01 10:55:11;;;;;;;319.15;145.55;;;23.40;43.90;;;;;;6044287;28;87369;-73
2022/02/01 10:58:12;;;;;;;327.83;147.18;;;23.40;43.70;;;;;;6053067;28;85377;-73
2022/02/01 11:01:13;;;;;;;266.77;120.35;;;23.30;43.90;;;;;;6051647;28;88398;-73
2022/02/01 11:04:13;;;;;;;232.68;100.95;;;23.40;43.80;;;;;;6051641;28;86034;-73
2022/02/01 11:07:14;;;;;;;180.25;80.53;;;23.40;43.80;;;;;;6054404;28;86760;-71
2022/02/01 11:10:14;;;;;;;150.98;68.65;;;23.40;43.80;;;;;;6047057;28;87505;-72
2022/02/01 11:13:15;;;;;;;124.53;57.00;;;23.40;43.70;;;;;;6054047;28;83650;-71
2022/02/01 11:16:15;;;;;;;109.45;49.08;;;23.50;43.80;;;;;;6061718;28;83965;-72
2022/02/01 11:19:16;;;;;;;100.97;45.22;;;23.40;43.90;;;;;;6070398;28;86289;-74
2022/02/01 11:22:16;;;;;;;83.25;36.67;;;23.40;43.80;;;;;;6061364;28;83448;-73
2022/02/01 11:25:25;;;;;;;65.82;30.30;;;23.40;43.60;;;;;;6059035;28;83239;-73
2022/02/01 11:28:37;;;;;;;61.47;28.75;;;23.40;44.00;;;;;;6030501;28;84766;-74
2022/02/01 11:31:37;;;;;;;54.13;24.45;;;23.40;44.50;;;;;;6052509;28;83919;-73
2022/02/01 11:34:38;;;;;;;50.53;23.88;;;23.40;44.30;;;;;;6056252;28;83694;-72
2022/02/01 11:37:38;;;;;;;51.03;20.00;;;23.50;44.70;;;;;;6059346;28;83655;-73
2022/02/01 11:40:41;;;;;;;40.80;19.17;;;23.50;44.60;;;;;;6058054;28;83089;-74
2022/02/01 11:43:42;;;;;;;37.45;18.33;;;23.50;44.90;;;;;;6055868;28;87613;-73
2022/02/01 11:46:43;;;;;;;35.88;17.63;;;23.50;44.60;;;;;;6041891;28;84408;-72
2022/02/01 11:49:43;;;;;;;33.03;15.27;;;23.60;44.40;;;;;;6044256;28;84361;-72
2022/02/01 11:52:44;;;;;;;40.35;13.27;;;23.60;44.10;;;;;;6048972;28;84478;-73
2022/02/01 11:55:44;;;;;;;39.15;13.02;;;23.60;44.60;;;;;;6055270;28;83299;-72
2022/02/01 11:58:49;;;;;;;26.65;12.38;;;23.60;44.30;;;;;;6054996;28;84008;-74
2022/02/01 12:01:49;;;;;;;26.88;11.45;;;23.60;44.70;;;;;;6060061;28;83069;-73
2022/02/01 12:04:50;;;;;;;23.58;11.15;;;23.50;44.70;;;;;;6037354;28;86326;-73
2022/02/01 12:07:54;;;;;;;18.05;10.27;;;23.50;44.80;;;;;;6056201;28;84199;-69
2022/02/01 12:10:55;;;;;;;20.42;10.15;;;23.50;44.50;;;;;;6045170;28;84633;-69
2022/02/01 12:13:55;;;;;;;19.30;9.95;;;23.50;44.80;;;;;;6055154;28;83424;-70
2022/02/01 12:16:56;;;;;;;20.83;10.00;;;23.50;44.70;;;;;;6060888;28;83260;-73
2022/02/01 12:19:56;;;;;;;20.17;8.95;;;23.40;44.40;;;;;;6060881;28;83293;-73
2022/02/01 12:22:57;;;;;;;21.23;9.38;;;23.30;44.50;;;;;;6061522;28;83731;-72
2022/02/01 12:25:57;;;;;;;13.85;7.93;;;23.30;44.70;;;;;;6057769;28;83388;-72
2022/02/01 12:28:58;;;;;;;15.38;8.10;;;23.30;45.20;;;;;;6058264;28;83398;-69
2022/02/01 12:31:58;;;;;;;14.60;7.38;;;23.30;44.80;;;;;;6065475;28;80793;-71
2022/02/01 12:34:59;;;;;;;18.95;7.47;;;23.30;45.00;;;;;;6050568;28;80534;-72
2022/02/01 12:37:59;;;;;;;15.00;7.50;;;23.30;44.80;;;;;;6064379;28;82100;-69
2022/02/01 12:41:11;;;;;;;14.77;6.32;;;23.30;44.70;;;;;;6056410;28;80818;-70
2022/02/01 12:47:12;;;;;;;13.77;6.80;;;23.20;44.10;;;;;;6066382;28;81061;-74
2022/02/01 12:50:13;;;;;;;11.85;6.43;;;23.10;44.10;;;;;;6068533;28;81096;-74
2022/02/01 12:53:13;;;;;;;12.75;6.57;;;23.10;44.10;;;;;;6050014;28;81674;-74
2022/02/01 12:56:14;;;;;;;12.90;6.97;;;23.10;43.70;;;;;;6051653;28;80759;-73
2022/02/01 12:59:15;;;;;;;19.52;6.68;;;23.10;43.10;;;;;;6050558;28;80285;-74
2022/02/01 13:02:15;;;;;;;15.65;6.60;;;23.10;42.30;;;;;;6058096;28;80229;-73
2022/02/01 13:05:17;;;;;;;14.95;6.05;;;23.10;42.10;;;;;;6061641;28;80699;-74
2022/02/01 13:08:37;;;;;;;12.55;6.20;;;23.10;41.90;;;;;;6055533;28;82045;-75
2022/02/01 13:20:04;;;;;;;13.05;6.95;;;23.20;41.00;;;;;;6060810;28;80522;-74
2022/02/01 13:21:37;;;;;;;12.75;7.28;;;23.20;40.90;;;;;;6057143;28;80802;-72
2022/02/01 13:24:38;;;;;;;13.27;7.25;;;23.20;40.90;;;;;;6051113;28;80917;-72
2022/02/01 13:27:38;;;;;;;15.00;7.30;;;23.20;40.70;;;;;;6054894;28;80959;-71
2022/02/01 13:30:39;;;;;;;15.90;6.95;;;23.10;40.40;;;;;;6064091;28;81584;-73
2022/02/01 13:33:39;;;;;;;11.93;6.60;;;23.20;40.20;;;;;;6070635;28;80701;-72
2022/02/01 13:36:40;;;;;;;16.88;7.15;;;23.20;40.30;;;;;;6064254;28;80770;-71
2022/02/01 13:39:44;;;;;;;14.30;7.93;;;23.20;40.10;;;;;;6056036;28;80878;-73
2022/02/01 13:42:44;;;;;;;14.50;6.65;;;23.20;40.00;;;;;;6054003;28;80531;-73
2022/02/01 13:45:45;;;;;;;15.13;7.32;;;23.10;39.90;;;;;;6051395;28;80376;-73
2022/02/01 13:48:45;;;;;;;12.77;6.80;;;23.10;39.70;;;;;;6050960;28;80776;-73
2022/02/01 13:51:46;;;;;;;13.25;7.07;;;23.20;39.60;;;;;;6054194;28;80724;-72
2022/02/01 13:54:46;;;;;;;14.43;6.55;;;23.20;39.40;;;;;;6053824;28;81416;-73
2022/02/01 13:57:47;;;;;;;13.95;7.22;;;23.20;39.30;;;;;;6055221;28;81846;-73
2022/02/01 14:00:48;;;;;;;14.10;7.30;;;23.20;39.10;;;;;;6060994;28;81580;-73
2022/02/01 14:03:57;;;;;;;14.48;6.75;;;23.20;39.10;;;;;;6047276;28;82189;-71
2022/02/01 14:07:03;;;;;;;14.50;6.95;;;23.20;38.90;;;;;;6046450;28;82561;-73
2022/02/01 14:13:42;;;;;;;13.52;6.88;;;23.20;38.90;;;;;;6056956;28;80231;-74
2022/02/01 14:35:42;;;;;;;17.75;6.82;;;23.00;38.20;;;;;;6065188;28;80655;-72
2022/02/01 14:45:02;;;;;;;17.00;7.75;;;23.10;40.40;;;;;;6060547;28;80609;-71
2022/02/01 14:48:02;;;;;;;14.02;7.78;;;23.10;40.50;;;;;;6059862;28;80963;-74
2022/02/01 14:51:03;;;;;;;13.60;7.82;;;23.10;40.60;;;;;;6055738;28;80473;-72
2022/02/01 14:54:06;;;;;;;14.77;7.53;;;23.10;40.30;;;;;;6053050;28;80515;-73
2022/02/01 15:04:02;;;;;;;12.52;7.22;;;23.10;39.60;;;;;;6065265;28;80645;-72
2022/02/01 15:07:12;;;;;;;12.77;6.90;;;23.10;39.20;;;;;;6047884;28;80427;-71
2022/02/01 15:13:36;;;;;;;15.45;7.32;;;23.20;38.70;;;;;;6052817;28;80982;-73
2022/02/01 15:16:37;;;;;;;11.30;5.78;;;23.20;38.80;;;;;;6034566;28;80674;-73
2022/02/01 15:19:38;;;;;;;12.43;6.53;;;23.20;38.60;;;;;;6056832;28;80534;-73
2022/02/01 15:22:40;;;;;;;11.73;5.88;;;23.30;38.70;;;;;;6050430;28;81611;-71
2022/02/01 15:25:41;;;;;;;13.02;6.45;;;23.30;38.60;;;;;;6055269;28;85120;-71
2022/02/01 15:28:41;;;;;;;15.20;7.25;;;23.30;38.60;;;;;;6054338;28;80516;-70
2022/02/01 15:31:42;;;;;;;9.80;5.82;;;23.40;38.50;;;;;;6055868;28;82570;-71
2022/02/01 15:34:43;;;;;;;12.00;6.22;;;23.40;39.20;;;;;;6051863;28;81708;-70
2022/02/01 15:37:45;;;;;;;10.25;6.03;;;23.40;38.40;;;;;;6049423;28;80445;-72
2022/02/01 15:54:49;;;;;;;11.93;6.60;;;23.50;38.20;;;;;;6062110;28;81060;-72
2022/02/01 15:57:52;;;;;;;9.43;5.32;;;23.50;38.30;;;;;;6062096;28;82132;-70
2022/02/01 16:00:57;;;;;;;9.80;5.00;;;23.50;38.20;;;;;;6071447;28;81575;-72
2022/02/01 16:04:01;;;;;;;8.80;5.43;;;23.60;38.20;;;;;;6061549;28;80487;-70
2022/02/01 16:07:05;;;;;;;8.48;5.35;;;23.50;38.50;;;;;;6066049;28;80569;-68
2022/02/01 16:10:34;;;;;;;12.20;5.78;;;23.50;38.50;;;;;;6066345;28;80807;-68
2022/02/01 16:13:40;;;;;;;12.00;5.88;;;23.50;38.20;;;;;;6063918;28;80697;-70
2022/02/01 16:16:41;;;;;;;9.18;4.97;;;23.50;37.90;;;;;;6061796;28;85014;-66
2022/02/01 16:19:41;;;;;;;8.85;5.10;;;23.50;37.80;;;;;;6057966;28;80391;-68
2022/02/01 16:22:44;;;;;;;10.70;5.60;;;23.50;37.60;;;;;;6056206;28;80409;-67
2022/02/01 16:25:45;;;;;;;8.65;5.15;;;23.50;37.90;;;;;;6059007;28;85492;-69
2022/02/01 16:28:45;;;;;;;10.70;5.07;;;23.50;37.80;;;;;;6067135;28;80415;-67
2022/02/01 16:31:48;;;;;;;9.20;5.13;;;23.50;37.50;;;;;;6060983;28;81916;-69
2022/02/01 16:34:48;;;;;;;10.50;5.38;;;23.50;37.80;;;;;;6054509;28;80850;-69
2022/02/01 16:37:49;;;;;;;10.05;5.18;;;23.50;38.10;;;;;;6058598;28;80188;-70
2022/02/01 16:40:49;;;;;;;10.40;5.22;;;23.50;38.50;;;;;;6052897;28;81440;-69
2022/02/01 16:43:53;;;;;;;8.88;5.43;;;23.50;38.90;;;;;;6058532;28;80499;-70
2022/02/01 16:47:14;;;;;;;9.57;4.57;;;23.50;39.00;;;;;;6053296;28;81321;-70
2022/02/01 16:50:21;;;;;;;10.95;4.95;;;23.50;38.30;;;;;;6063474;28;80770;-65
2022/02/01 16:53:30;;;;;;;9.85;5.10;;;23.40;38.20;;;;;;6051901;28;80472;-71
2022/02/01 16:59:40;;;;;;;8.57;4.90;;;23.40;38.10;;;;;;6070283;28;80695;-67
2022/02/01 17:02:40;;;;;;;8.48;4.50;;;23.40;39.20;;;;;;6052781;28;80716;-68
2022/02/01 17:05:41;;;;;;;10.23;5.07;;;23.40;38.40;;;;;;6067563;28;82249;-66
2022/02/01 17:08:43;;;;;;;10.60;4.93;;;23.40;39.00;;;;;;6067304;28;80597;-64
2022/02/01 17:24:20;;;;;;;11.88;5.57;;;23.30;38.30;;;;;;6058737;28;81263;-66
2022/02/01 17:27:20;;;;;;;11.32;5.72;;;23.30;38.20;;;;;;6058715;28;80502;-67
2022/02/01 17:30:21;;;;;;;11.05;5.28;;;23.30;38.10;;;;;;6058331;28;81505;-67
2022/02/01 17:33:21;;;;;;;12.30;6.10;;;23.20;38.60;;;;;;6054733;28;81466;-68
2022/02/01 17:36:22;;;;;;;11.63;5.88;;;23.20;39.20;;;;;;6060668;28;80360;-70
2022/02/01 17:39:24;;;;;;;10.60;6.03;;;23.20;38.90;;;;;;6060004;28;82180;-70
2022/02/01 17:42:24;;;;;;;12.00;6.45;;;23.20;38.80;;;;;;6060065;28;80520;-70
2022/02/01 17:45:25;;;;;;;13.43;6.47;;;23.20;38.50;;;;;;6067235;28;81764;-68
2022/02/01 17:48:29;;;;;;;10.95;6.47;;;23.10;38.00;;;;;;6062257;28;81411;-71
2022/02/01 17:51:58;;;;;;;13.80;6.97;;;23.10;37.70;;;;;;6067308;28;80759;-70
2022/02/01 17:54:56;;;;;;;11.27;6.50;;;23.10;37.40;;;;;;6061795;28;82646;-68
2022/02/01 17:57:56;;;;;;;10.95;6.70;;;23.00;37.10;;;;;;6057862;28;80832;-66
2022/02/01 18:00:57;;;;;;;13.02;7.07;;;23.00;37.20;;;;;;6061094;28;81038;-67
2022/02/01 18:03:58;;;;;;;14.48;6.97;;;22.90;37.70;;;;;;6064064;28;80957;-70
2022/02/01 18:06:59;;;;;;;11.57;6.32;;;22.90;38.40;;;;;;6056157;28;83670;-71
2022/02/01 18:10:02;;;;;;;11.18;6.43;;;22.90;38.30;;;;;;6049642;28;80491;-68
2022/02/01 18:13:13;;;;;;;12.05;6.10;;;22.90;38.70;;;;;;6064860;28;82708;-72
2022/02/01 18:16:13;;;;;;;13.73;6.18;;;23.00;38.50;;;;;;6049043;28;80417;-66